sensor_id;sensor_type;location;lat;lon;timestamp;temperature;humidity
70151;DHT22;57517;43.562;19.540;2023-12-14T00:00:16;461.20;1484.80
70151;DHT22;57517;43.562;19.540;2023-12-14T00:02:43;461.20;1484.80
70151;DHT22;57517;43.562;19.540;2023-12-14T00:05:09;461.20;1484.80
70151;DHT22;57517;43.562;19.540;2023-12-14T00:07:35;461.20;1484.80
70151;DHT22;57517;43.562;19.540;2023-12-14T00:10:01;461.20;1484.80
70151;DHT22;57517;43.562;19.540;2023-12-14T00:12:27;461.20;1484.80
70151;DHT22;57517;43.562;19.540;2023-12-14T00:14:52;461.20;1484.80
70151;DHT22;57517;43.562;19.540;2023-12-14T00:17:18;461.30;1484.80
70151;DHT22;57517;43.562;19.540;2023-12-14T00:19:44;461.30;1484.80
70151;DHT22;57517;43.562;19.540;2023-12-14T00:22:10;461.30;1484.80
70151;DHT22;57517;43.562;19.540;2023-12-14T00:24:36;461.30;1484.80
70151;DHT22;57517;43.562;19.540;2023-12-14T00:27:01;461.20;1484.80
70151;DHT22;57517;43.562;19.540;2023-12-14T00:29:27;461.30;1484.80
70151;DHT22;57517;43.562;19.540;2023-12-14T00:31:53;461.30;1484.80
70151;DHT22;57517;43.562;19.540;2023-12-14T00:34:19;461.30;1484.80
70151;DHT22;57517;43.562;19.540;2023-12-14T00:36:45;461.30;1484.80
70151;DHT22;57517;43.562;19.540;2023-12-14T00:39:10;461.30;1484.80
70151;DHT22;57517;43.562;19.540;2023-12-14T00:41:36;461.20;1484.80
70151;DHT22;57517;43.562;19.540;2023-12-14T00:44:02;461.30;1484.80
70151;DHT22;57517;43.562;19.540;2023-12-14T00:46:28;461.30;1484.80
70151;DHT22;57517;43.562;19.540;2023-12-14T00:48:54;461.30;1484.80
70151;DHT22;57517;43.562;19.540;2023-12-14T00:51:19;461.30;1484.80
70151;DHT22;57517;43.562;19.540;2023-12-14T00:53:45;461.30;1484.80
70151;DHT22;57517;43.562;19.540;2023-12-14T00:56:11;461.30;1484.80
70151;DHT22;57517;43.562;19.540;2023-12-14T00:58:37;461.30;1484.80
70151;DHT22;57517;43.562;19.540;2023-12-14T01:01:03;461.30;1484.80
70151;DHT22;57517;43.562;19.540;2023-12-14T01:03:28;461.30;1510.40
70151;DHT22;57517;43.562;19.540;2023-12-14T01:05:54;461.30;1510.40
70151;DHT22;57517;43.562;19.540;2023-12-14T01:08:20;461.30;1484.80
70151;DHT22;57517;43.562;19.540;2023-12-14T01:10:46;461.30;1510.40
70151;DHT22;57517;43.562;19.540;2023-12-14T01:13:12;461.30;1510.40
70151;DHT22;57517;43.562;19.540;2023-12-14T01:15:37;461.30;1510.40
70151;DHT22;57517;43.562;19.540;2023-12-14T01:18:03;461.30;1510.40
70151;DHT22;57517;43.562;19.540;2023-12-14T01:20:29;461.30;1510.40
70151;DHT22;57517;43.562;19.540;2023-12-14T01:22:55;461.30;1484.80
70151;DHT22;57517;43.562;19.540;2023-12-14T01:25:21;461.30;1510.40
70151;DHT22;57517;43.562;19.540;2023-12-14T01:27:47;461.20;1510.40
70151;DHT22;57517;43.562;19.540;2023-12-14T01:30:12;461.20;1510.40
70151;DHT22;57517;43.562;19.540;2023-12-14T01:32:38;461.20;1484.80
70151;DHT22;57517;43.562;19.540;2023-12-14T01:35:04;461.20;1510.40
70151;DHT22;57517;43.562;19.540;2023-12-14T01:37:30;461.30;1484.80
70151;DHT22;57517;43.562;19.540;2023-12-14T01:39:56;461.20;1510.40
70151;DHT22;57517;43.562;19.540;2023-12-14T01:42:22;461.20;1510.40
70151;DHT22;57517;43.562;19.540;2023-12-14T01:44:48;461.20;1510.40
70151;DHT22;57517;43.562;19.540;2023-12-14T01:47:13;461.10;1510.40
70151;DHT22;57517;43.562;19.540;2023-12-14T01:49:39;461.10;1510.40
70151;DHT22;57517;43.562;19.540;2023-12-14T01:52:07;461.10;1510.40
70151;DHT22;57517;43.562;19.540;2023-12-14T01:54:32;461.00;1510.40
70151;DHT22;57517;43.562;19.540;2023-12-14T01:56:59;461.00;1510.40
70151;DHT22;57517;43.562;19.540;2023-12-14T01:59:25;461.00;1510.40
70151;DHT22;57517;43.562;19.540;2023-12-14T02:01:55;461.00;1510.40
70151;DHT22;57517;43.562;19.540;2023-12-14T02:04:23;461.00;1510.40
70151;DHT22;57517;43.562;19.540;2023-12-14T02:06:49;460.90;1536.00
70151;DHT22;57517;43.562;19.540;2023-12-14T02:09:15;460.90;1536.00
70151;DHT22;57517;43.562;19.540;2023-12-14T02:11:41;460.90;1510.40
70151;DHT22;57517;43.562;19.540;2023-12-14T02:14:09;460.90;1510.40
70151;DHT22;57517;43.562;19.540;2023-12-14T02:16:35;460.90;1510.40
70151;DHT22;57517;43.562;19.540;2023-12-14T02:19:04;461.00;1510.40
70151;DHT22;57517;43.562;19.540;2023-12-14T02:21:30;461.00;1510.40
70151;DHT22;57517;43.562;19.540;2023-12-14T02:23:56;461.00;1510.40
70151;DHT22;57517;43.562;19.540;2023-12-14T02:26:22;461.00;1510.40
70151;DHT22;57517;43.562;19.540;2023-12-14T02:28:48;461.00;1510.40
70151;DHT22;57517;43.562;19.540;2023-12-14T02:31:14;460.90;1510.40
70151;DHT22;57517;43.562;19.540;2023-12-14T02:33:39;461.00;1510.40
70151;DHT22;57517;43.562;19.540;2023-12-14T02:36:05;460.90;1510.40
70151;DHT22;57517;43.562;19.540;2023-12-14T02:38:31;460.80;1510.40
70151;DHT22;57517;43.562;19.540;2023-12-14T02:40:57;460.80;1536.00
70151;DHT22;57517;43.562;19.540;2023-12-14T02:43:23;436.10;1510.40
70151;DHT22;57517;43.562;19.540;2023-12-14T02:45:49;436.10;1510.40
70151;DHT22;57517;43.562;19.540;2023-12-14T02:48:15;436.10;1510.40
70151;DHT22;57517;43.562;19.540;2023-12-14T02:50:41;436.10;1536.00
70151;DHT22;57517;43.562;19.540;2023-12-14T02:53:07;436.10;1536.00
70151;DHT22;57517;43.562;19.540;2023-12-14T02:55:32;436.10;1510.40
70151;DHT22;57517;43.562;19.540;2023-12-14T02:57:58;436.10;1510.40
70151;DHT22;57517;43.562;19.540;2023-12-14T03:00:24;436.00;1536.00
70151;DHT22;57517;43.562;19.540;2023-12-14T03:02:50;436.00;1536.00
70151;DHT22;57517;43.562;19.540;2023-12-14T03:05:16;436.10;1536.00
70151;DHT22;57517;43.562;19.540;2023-12-14T03:07:42;436.00;1536.00
70151;DHT22;57517;43.562;19.540;2023-12-14T03:10:08;436.00;1536.00
70151;DHT22;57517;43.562;19.540;2023-12-14T03:12:34;436.00;1536.00
70151;DHT22;57517;43.562;19.540;2023-12-14T03:14:59;436.00;1536.00
70151;DHT22;57517;43.562;19.540;2023-12-14T03:17:25;436.00;1536.00
70151;DHT22;57517;43.562;19.540;2023-12-14T03:19:51;436.10;1536.00
70151;DHT22;57517;43.562;19.540;2023-12-14T03:22:17;436.00;1536.00
70151;DHT22;57517;43.562;19.540;2023-12-14T03:24:42;436.00;1536.00
70151;DHT22;57517;43.562;19.540;2023-12-14T03:27:08;436.00;1561.60
70151;DHT22;57517;43.562;19.540;2023-12-14T03:29:34;436.00;1536.00
70151;DHT22;57517;43.562;19.540;2023-12-14T03:32:00;436.00;1536.00
70151;DHT22;57517;43.562;19.540;2023-12-14T03:34:26;435.90;1536.00
70151;DHT22;57517;43.562;19.540;2023-12-14T03:36:52;436.00;1561.60
70151;DHT22;57517;43.562;19.540;2023-12-14T03:39:18;435.90;1561.60
70151;DHT22;57517;43.562;19.540;2023-12-14T03:41:44;435.80;1561.60
70151;DHT22;57517;43.562;19.540;2023-12-14T03:44:10;435.90;1536.00
70151;DHT22;57517;43.562;19.540;2023-12-14T03:46:36;435.90;1536.00
70151;DHT22;57517;43.562;19.540;2023-12-14T03:49:02;436.00;1536.00
70151;DHT22;57517;43.562;19.540;2023-12-14T03:51:29;436.00;1536.00
70151;DHT22;57517;43.562;19.540;2023-12-14T03:53:55;436.00;1536.00
70151;DHT22;57517;43.562;19.540;2023-12-14T03:56:20;436.00;1536.00
70151;DHT22;57517;43.562;19.540;2023-12-14T03:58:46;436.00;1536.00
70151;DHT22;57517;43.562;19.540;2023-12-14T04:01:19;435.90;1536.00
70151;DHT22;57517;43.562;19.540;2023-12-14T04:03:45;435.90;1536.00
70151;DHT22;57517;43.562;19.540;2023-12-14T04:06:12;435.70;1561.60
70151;DHT22;57517;43.562;19.540;2023-12-14T04:08:37;435.70;1561.60
70151;DHT22;57517;43.562;19.540;2023-12-14T04:11:04;435.90;1561.60
70151;DHT22;57517;43.562;19.540;2023-12-14T04:13:30;435.90;1561.60
70151;DHT22;57517;43.562;19.540;2023-12-14T04:15:56;436.00;1510.40
70151;DHT22;57517;43.562;19.540;2023-12-14T04:18:23;436.10;1536.00
70151;DHT22;57517;43.562;19.540;2023-12-14T04:20:49;436.00;1561.60
70151;DHT22;57517;43.562;19.540;2023-12-14T04:23:14;435.40;1612.80
70151;DHT22;57517;43.562;19.540;2023-12-14T04:25:40;410.20;1689.60
70151;DHT22;57517;43.562;19.540;2023-12-14T04:28:06;409.70;1715.20
70151;DHT22;57517;43.562;19.540;2023-12-14T04:30:32;384.70;1740.80
70151;DHT22;57517;43.562;19.540;2023-12-14T04:32:57;384.20;1792.00
70151;DHT22;57517;43.562;19.540;2023-12-14T04:35:23;359.30;1817.60
70151;DHT22;57517;43.562;19.540;2023-12-14T04:37:49;359.10;1868.80
70151;DHT22;57517;43.562;19.540;2023-12-14T04:40:15;358.90;1920.00
70151;DHT22;57517;43.562;19.540;2023-12-14T04:42:41;358.70;1996.80
70151;DHT22;57517;43.562;19.540;2023-12-14T04:45:07;358.50;2099.20
70151;DHT22;57517;43.562;19.540;2023-12-14T04:47:35;333.70;2150.40
70151;DHT22;57517;43.562;19.540;2023-12-14T04:50:02;333.50;2176.00
70151;DHT22;57517;43.562;19.540;2023-12-14T04:52:27;333.40;2252.80
70151;DHT22;57517;43.562;19.540;2023-12-14T04:54:53;333.20;2304.00
70151;DHT22;57517;43.562;19.540;2023-12-14T04:57:19;333.20;2329.60
70151;DHT22;57517;43.562;19.540;2023-12-14T04:59:45;333.40;2304.00
70151;DHT22;57517;43.562;19.540;2023-12-14T05:02:11;333.40;2329.60
70151;DHT22;57517;43.562;19.540;2023-12-14T05:04:36;333.30;2329.60
70151;DHT22;57517;43.562;19.540;2023-12-14T05:07:02;333.10;2329.60
70151;DHT22;57517;43.562;19.540;2023-12-14T05:09:28;333.10;2329.60
70151;DHT22;57517;43.562;19.540;2023-12-14T05:11:54;333.00;2329.60
70151;DHT22;57517;43.562;19.540;2023-12-14T05:14:20;333.00;2329.60
70151;DHT22;57517;43.562;19.540;2023-12-14T05:16:45;332.90;2329.60
70151;DHT22;57517;43.562;19.540;2023-12-14T05:19:11;332.80;2329.60
70151;DHT22;57517;43.562;19.540;2023-12-14T05:21:40;308.10;2304.00
70151;DHT22;57517;43.562;19.540;2023-12-14T05:24:06;308.10;2304.00
70151;DHT22;57517;43.562;19.540;2023-12-14T05:26:32;332.80;2329.60
70151;DHT22;57517;43.562;19.540;2023-12-14T05:28:57;308.10;2304.00
70151;DHT22;57517;43.562;19.540;2023-12-14T05:31:23;308.10;2304.00
70151;DHT22;57517;43.562;19.540;2023-12-14T05:33:49;308.00;2304.00
70151;DHT22;57517;43.562;19.540;2023-12-14T05:36:15;308.10;2304.00
70151;DHT22;57517;43.562;19.540;2023-12-14T05:38:41;308.10;2304.00
70151;DHT22;57517;43.562;19.540;2023-12-14T05:41:07;332.80;2329.60
70151;DHT22;57517;43.562;19.540;2023-12-14T05:43:33;332.90;2329.60
70151;DHT22;57517;43.562;19.540;2023-12-14T05:45:59;332.90;2329.60
70151;DHT22;57517;43.562;19.540;2023-12-14T05:48:25;332.90;2329.60
70151;DHT22;57517;43.562;19.540;2023-12-14T05:50:56;333.00;2329.60
70151;DHT22;57517;43.562;19.540;2023-12-14T05:53:22;333.10;2329.60
70151;DHT22;57517;43.562;19.540;2023-12-14T05:55:47;333.10;2329.60
70151;DHT22;57517;43.562;19.540;2023-12-14T05:58:13;333.00;2329.60
70151;DHT22;57517;43.562;19.540;2023-12-14T06:00:39;333.00;2329.60
70151;DHT22;57517;43.562;19.540;2023-12-14T06:03:05;332.80;2329.60
70151;DHT22;57517;43.562;19.540;2023-12-14T06:05:31;332.90;2329.60
70151;DHT22;57517;43.562;19.540;2023-12-14T06:07:57;333.00;2329.60
70151;DHT22;57517;43.562;19.540;2023-12-14T06:10:23;332.90;2329.60
70151;DHT22;57517;43.562;19.540;2023-12-14T06:12:48;333.00;2329.60
70151;DHT22;57517;43.562;19.540;2023-12-14T06:15:14;332.90;2329.60
70151;DHT22;57517;43.562;19.540;2023-12-14T06:17:40;333.00;2329.60
70151;DHT22;57517;43.562;19.540;2023-12-14T06:20:08;333.00;2329.60
70151;DHT22;57517;43.562;19.540;2023-12-14T06:22:37;333.10;2329.60
70151;DHT22;57517;43.562;19.540;2023-12-14T06:25:03;333.30;2329.60
70151;DHT22;57517;43.562;19.540;2023-12-14T06:27:29;333.30;2329.60
70151;DHT22;57517;43.562;19.540;2023-12-14T06:29:55;333.20;2329.60
70151;DHT22;57517;43.562;19.540;2023-12-14T06:32:21;333.10;2329.60
70151;DHT22;57517;43.562;19.540;2023-12-14T06:34:47;333.10;2329.60
70151;DHT22;57517;43.562;19.540;2023-12-14T06:37:13;333.10;2329.60
70151;DHT22;57517;43.562;19.540;2023-12-14T06:39:41;333.10;2329.60
70151;DHT22;57517;43.562;19.540;2023-12-14T06:42:07;333.20;2329.60
70151;DHT22;57517;43.562;19.540;2023-12-14T06:44:32;333.00;2329.60
70151;DHT22;57517;43.562;19.540;2023-12-14T06:46:58;332.90;2329.60
70151;DHT22;57517;43.562;19.540;2023-12-14T06:49:25;332.80;2329.60
70151;DHT22;57517;43.562;19.540;2023-12-14T06:51:51;332.90;2329.60
70151;DHT22;57517;43.562;19.540;2023-12-14T06:54:17;333.00;2329.60
70151;DHT22;57517;43.562;19.540;2023-12-14T06:56:43;333.00;2329.60
70151;DHT22;57517;43.562;19.540;2023-12-14T06:59:08;333.00;2329.60
70151;DHT22;57517;43.562;19.540;2023-12-14T07:01:34;333.10;2329.60
70151;DHT22;57517;43.562;19.540;2023-12-14T07:04:00;333.20;2329.60
70151;DHT22;57517;43.562;19.540;2023-12-14T07:06:28;333.30;2329.60
70151;DHT22;57517;43.562;19.540;2023-12-14T07:08:54;333.30;2329.60
70151;DHT22;57517;43.562;19.540;2023-12-14T07:11:20;333.30;2329.60
70151;DHT22;57517;43.562;19.540;2023-12-14T07:13:45;333.40;2329.60
70151;DHT22;57517;43.562;19.540;2023-12-14T07:16:12;333.30;2329.60
70151;DHT22;57517;43.562;19.540;2023-12-14T07:18:40;333.20;2329.60
70151;DHT22;57517;43.562;19.540;2023-12-14T07:21:06;333.30;2329.60
70151;DHT22;57517;43.562;19.540;2023-12-14T07:23:33;333.50;2329.60
70151;DHT22;57517;43.562;19.540;2023-12-14T07:25:59;333.50;2329.60
70151;DHT22;57517;43.562;19.540;2023-12-14T07:28:25;333.50;2329.60
70151;DHT22;57517;43.562;19.540;2023-12-14T07:30:51;333.50;2329.60
70151;DHT22;57517;43.562;19.540;2023-12-14T07:33:17;333.50;2329.60
70151;DHT22;57517;43.562;19.540;2023-12-14T07:35:42;333.60;2329.60
70151;DHT22;57517;43.562;19.540;2023-12-14T07:38:09;333.60;2329.60
70151;DHT22;57517;43.562;19.540;2023-12-14T07:40:35;333.60;2329.60
70151;DHT22;57517;43.562;19.540;2023-12-14T07:43:01;333.60;2329.60
70151;DHT22;57517;43.562;19.540;2023-12-14T07:45:27;333.50;2329.60
70151;DHT22;57517;43.562;19.540;2023-12-14T07:47:53;333.40;2329.60
70151;DHT22;57517;43.562;19.540;2023-12-14T07:50:19;333.10;2329.60
70151;DHT22;57517;43.562;19.540;2023-12-14T07:52:45;308.10;2304.00
70151;DHT22;57517;43.562;19.540;2023-12-14T07:55:11;332.80;2329.60
70151;DHT22;57517;43.562;19.540;2023-12-14T07:57:39;307.90;2304.00
70151;DHT22;57517;43.562;19.540;2023-12-14T08:00:06;308.00;2304.00
70151;DHT22;57517;43.562;19.540;2023-12-14T08:02:34;307.90;2304.00
70151;DHT22;57517;43.562;19.540;2023-12-14T08:05:00;307.80;2304.00
70151;DHT22;57517;43.562;19.540;2023-12-14T08:07:26;307.90;2304.00
70151;DHT22;57517;43.562;19.540;2023-12-14T08:09:55;308.00;2304.00
70151;DHT22;57517;43.562;19.540;2023-12-14T08:12:21;308.00;2304.00
70151;DHT22;57517;43.562;19.540;2023-12-14T08:14:47;307.80;2304.00
70151;DHT22;57517;43.562;19.540;2023-12-14T08:17:13;307.80;2304.00
70151;DHT22;57517;43.562;19.540;2023-12-14T08:19:39;307.80;2304.00
70151;DHT22;57517;43.562;19.540;2023-12-14T08:22:06;307.50;2304.00
70151;DHT22;57517;43.562;19.540;2023-12-14T08:24:33;307.30;2304.00
70151;DHT22;57517;43.562;19.540;2023-12-14T08:26:58;307.30;2304.00
70151;DHT22;57517;43.562;19.540;2023-12-14T08:29:24;307.50;2304.00
70151;DHT22;57517;43.562;19.540;2023-12-14T08:31:50;307.70;2304.00
70151;DHT22;57517;43.562;19.540;2023-12-14T08:34:16;307.60;2304.00
70151;DHT22;57517;43.562;19.540;2023-12-14T08:36:41;307.70;2304.00
70151;DHT22;57517;43.562;19.540;2023-12-14T08:39:07;307.80;2304.00
70151;DHT22;57517;43.562;19.540;2023-12-14T08:41:33;307.70;2304.00
70151;DHT22;57517;43.562;19.540;2023-12-14T08:43:59;307.60;2304.00
70151;DHT22;57517;43.562;19.540;2023-12-14T08:46:24;307.60;2304.00
70151;DHT22;57517;43.562;19.540;2023-12-14T08:48:50;307.70;2304.00
70151;DHT22;57517;43.562;19.540;2023-12-14T08:51:17;307.50;2304.00
70151;DHT22;57517;43.562;19.540;2023-12-14T08:53:44;307.50;2304.00
70151;DHT22;57517;43.562;19.540;2023-12-14T08:56:10;307.60;2304.00
70151;DHT22;57517;43.562;19.540;2023-12-14T08:58:36;307.70;2304.00
70151;DHT22;57517;43.562;19.540;2023-12-14T09:01:01;307.90;2304.00
70151;DHT22;57517;43.562;19.540;2023-12-14T09:03:27;307.90;2304.00
70151;DHT22;57517;43.562;19.540;2023-12-14T09:05:53;307.90;2304.00
70151;DHT22;57517;43.562;19.540;2023-12-14T09:08:19;307.90;2304.00
70151;DHT22;57517;43.562;19.540;2023-12-14T09:10:44;307.80;2304.00
70151;DHT22;57517;43.562;19.540;2023-12-14T09:13:10;307.60;2304.00
70151;DHT22;57517;43.562;19.540;2023-12-14T09:15:36;307.50;2304.00
70151;DHT22;57517;43.562;19.540;2023-12-14T09:18:02;307.50;2304.00
70151;DHT22;57517;43.562;19.540;2023-12-14T09:20:28;307.40;2304.00
70151;DHT22;57517;43.562;19.540;2023-12-14T09:22:54;307.40;2304.00
70151;DHT22;57517;43.562;19.540;2023-12-14T09:25:19;307.30;2304.00
70151;DHT22;57517;43.562;19.540;2023-12-14T09:27:46;307.30;2304.00
70151;DHT22;57517;43.562;19.540;2023-12-14T09:30:12;307.30;2304.00
70151;DHT22;57517;43.562;19.540;2023-12-14T09:32:38;307.40;2304.00
70151;DHT22;57517;43.562;19.540;2023-12-14T09:35:06;307.50;2304.00
70151;DHT22;57517;43.562;19.540;2023-12-14T09:37:32;307.50;2304.00
70151;DHT22;57517;43.562;19.540;2023-12-14T09:39:58;307.60;2304.00
70151;DHT22;57517;43.562;19.540;2023-12-14T09:42:24;307.60;2304.00
70151;DHT22;57517;43.562;19.540;2023-12-14T09:44:51;307.60;2304.00
70151;DHT22;57517;43.562;19.540;2023-12-14T09:47:18;307.60;2304.00
70151;DHT22;57517;43.562;19.540;2023-12-14T09:49:45;307.70;2304.00
70151;DHT22;57517;43.562;19.540;2023-12-14T09:52:11;307.60;2304.00
70151;DHT22;57517;43.562;19.540;2023-12-14T09:54:37;307.70;2304.00
70151;DHT22;57517;43.562;19.540;2023-12-14T09:57:03;307.80;2304.00
70151;DHT22;57517;43.562;19.540;2023-12-14T09:59:29;307.90;2304.00
70151;DHT22;57517;43.562;19.540;2023-12-14T10:02:11;308.10;2304.00
70151;DHT22;57517;43.562;19.540;2023-12-14T10:04:37;308.10;2304.00
70151;DHT22;57517;43.562;19.540;2023-12-14T10:07:03;308.10;2304.00
70151;DHT22;57517;43.562;19.540;2023-12-14T10:09:33;307.90;2304.00
70151;DHT22;57517;43.562;19.540;2023-12-14T10:12:09;307.90;2304.00
70151;DHT22;57517;43.562;19.540;2023-12-14T10:14:36;307.90;2304.00
70151;DHT22;57517;43.562;19.540;2023-12-14T10:17:21;307.90;2304.00
70151;DHT22;57517;43.562;19.540;2023-12-14T10:19:47;307.90;2304.00
70151;DHT22;57517;43.562;19.540;2023-12-14T10:22:14;307.80;2304.00
70151;DHT22;57517;43.562;19.540;2023-12-14T10:24:45;307.80;2304.00
70151;DHT22;57517;43.562;19.540;2023-12-14T10:27:12;307.80;2304.00
70151;DHT22;57517;43.562;19.540;2023-12-14T10:29:39;307.50;2304.00
70151;DHT22;57517;43.562;19.540;2023-12-14T10:32:05;307.50;2304.00
70151;DHT22;57517;43.562;19.540;2023-12-14T10:34:35;307.50;2304.00
70151;DHT22;57517;43.562;19.540;2023-12-14T10:37:04;307.40;2304.00
70151;DHT22;57517;43.562;19.540;2023-12-14T10:39:31;307.40;2304.00
70151;DHT22;57517;43.562;19.540;2023-12-14T10:41:57;307.50;2304.00
70151;DHT22;57517;43.562;19.540;2023-12-14T10:44:26;307.50;2304.00
70151;DHT22;57517;43.562;19.540;2023-12-14T10:46:55;307.60;2304.00
70151;DHT22;57517;43.562;19.540;2023-12-14T10:49:25;307.50;2304.00
70151;DHT22;57517;43.562;19.540;2023-12-14T10:51:56;307.40;2304.00
70151;DHT22;57517;43.562;19.540;2023-12-14T10:54:24;307.30;2304.00
70151;DHT22;57517;43.562;19.540;2023-12-14T10:56:55;307.50;2304.00
70151;DHT22;57517;43.562;19.540;2023-12-14T10:59:23;307.60;2304.00
70151;DHT22;57517;43.562;19.540;2023-12-14T11:01:53;307.50;2304.00
70151;DHT22;57517;43.562;19.540;2023-12-14T11:04:21;307.60;2304.00
70151;DHT22;57517;43.562;19.540;2023-12-14T11:06:47;307.60;2304.00
70151;DHT22;57517;43.562;19.540;2023-12-14T11:09:17;307.60;2304.00
70151;DHT22;57517;43.562;19.540;2023-12-14T11:14:19;307.60;2304.00
70151;DHT22;57517;43.562;19.540;2023-12-14T11:16:47;307.50;2304.00
70151;DHT22;57517;43.562;19.540;2023-12-14T11:24:22;307.50;2304.00
70151;DHT22;57517;43.562;19.540;2023-12-14T11:26:51;307.50;2304.00
70151;DHT22;57517;43.562;19.540;2023-12-14T11:29:18;307.70;2304.00
70151;DHT22;57517;43.562;19.540;2023-12-14T11:31:48;307.80;2304.00
70151;DHT22;57517;43.562;19.540;2023-12-14T11:34:16;307.70;2304.00
70151;DHT22;57517;43.562;19.540;2023-12-14T11:36:42;307.60;2304.00
70151;DHT22;57517;43.562;19.540;2023-12-14T11:39:12;307.60;2304.00
70151;DHT22;57517;43.562;19.540;2023-12-14T11:41:38;307.70;2304.00
70151;DHT22;57517;43.562;19.540;2023-12-14T11:44:06;307.80;2304.00
70151;DHT22;57517;43.562;19.540;2023-12-14T11:46:32;307.70;2304.00
70151;DHT22;57517;43.562;19.540;2023-12-14T11:48:58;307.60;2304.00
70151;DHT22;57517;43.562;19.540;2023-12-14T11:51:24;307.60;2304.00
70151;DHT22;57517;43.562;19.540;2023-12-14T11:53:52;307.70;2304.00
70151;DHT22;57517;43.562;19.540;2023-12-14T11:56:18;307.80;2304.00
70151;DHT22;57517;43.562;19.540;2023-12-14T11:58:46;307.80;2304.00
70151;DHT22;57517;43.562;19.540;2023-12-14T12:01:19;307.90;2304.00
70151;DHT22;57517;43.562;19.540;2023-12-14T12:03:50;307.90;2304.00
70151;DHT22;57517;43.562;19.540;2023-12-14T12:08:46;308.10;2304.00
70151;DHT22;57517;43.562;19.540;2023-12-14T12:11:19;332.80;2329.60
70151;DHT22;57517;43.562;19.540;2023-12-14T12:13:54;308.10;2304.00
70151;DHT22;57517;43.562;19.540;2023-12-14T12:16:20;308.10;2304.00
70151;DHT22;57517;43.562;19.540;2023-12-14T12:18:46;308.10;2304.00
70151;DHT22;57517;43.562;19.540;2023-12-14T12:21:12;332.80;2329.60
70151;DHT22;57517;43.562;19.540;2023-12-14T12:23:38;308.10;2304.00
70151;DHT22;57517;43.562;19.540;2023-12-14T12:26:04;332.90;2329.60
70151;DHT22;57517;43.562;19.540;2023-12-14T12:28:31;332.80;2329.60
70151;DHT22;57517;43.562;19.540;2023-12-14T12:30:57;308.00;2304.00
70151;DHT22;57517;43.562;19.540;2023-12-14T12:33:25;307.80;2304.00
70151;DHT22;57517;43.562;19.540;2023-12-14T12:35:54;307.80;2304.00
70151;DHT22;57517;43.562;19.540;2023-12-14T12:38:20;307.80;2304.00
70151;DHT22;57517;43.562;19.540;2023-12-14T12:40:46;307.70;2304.00
70151;DHT22;57517;43.562;19.540;2023-12-14T12:43:13;307.60;2304.00
70151;DHT22;57517;43.562;19.540;2023-12-14T12:45:39;307.50;2304.00
70151;DHT22;57517;43.562;19.540;2023-12-14T12:48:05;307.60;2304.00
70151;DHT22;57517;43.562;19.540;2023-12-14T12:50:32;307.60;2304.00
70151;DHT22;57517;43.562;19.540;2023-12-14T12:52:58;307.70;2304.00
70151;DHT22;57517;43.562;19.540;2023-12-14T12:55:24;307.70;2304.00
70151;DHT22;57517;43.562;19.540;2023-12-14T12:57:50;307.70;2304.00
70151;DHT22;57517;43.562;19.540;2023-12-14T13:00:16;307.70;2304.00
70151;DHT22;57517;43.562;19.540;2023-12-14T13:02:44;307.70;2304.00
70151;DHT22;57517;43.562;19.540;2023-12-14T13:05:10;307.60;2304.00
70151;DHT22;57517;43.562;19.540;2023-12-14T13:07:36;307.70;2304.00
70151;DHT22;57517;43.562;19.540;2023-12-14T13:10:04;307.70;2304.00
70151;DHT22;57517;43.562;19.540;2023-12-14T13:12:31;307.60;2304.00
70151;DHT22;57517;43.562;19.540;2023-12-14T13:14:57;307.70;2304.00
70151;DHT22;57517;43.562;19.540;2023-12-14T13:17:23;307.70;2304.00
70151;DHT22;57517;43.562;19.540;2023-12-14T13:19:49;307.70;2304.00
70151;DHT22;57517;43.562;19.540;2023-12-14T13:22:15;307.70;2304.00
70151;DHT22;57517;43.562;19.540;2023-12-14T13:24:41;307.70;2304.00
70151;DHT22;57517;43.562;19.540;2023-12-14T13:27:07;307.80;2304.00
70151;DHT22;57517;43.562;19.540;2023-12-14T13:29:32;307.80;2304.00
70151;DHT22;57517;43.562;19.540;2023-12-14T13:32:00;307.80;2304.00
70151;DHT22;57517;43.562;19.540;2023-12-14T13:34:27;307.70;2304.00
70151;DHT22;57517;43.562;19.540;2023-12-14T13:36:56;307.80;2304.00
70151;DHT22;57517;43.562;19.540;2023-12-14T13:39:24;307.80;2304.00
70151;DHT22;57517;43.562;19.540;2023-12-14T13:41:50;307.80;2304.00
70151;DHT22;57517;43.562;19.540;2023-12-14T13:44:15;307.80;2304.00
70151;DHT22;57517;43.562;19.540;2023-12-14T13:46:41;307.90;2304.00
70151;DHT22;57517;43.562;19.540;2023-12-14T13:49:07;307.90;2304.00
70151;DHT22;57517;43.562;19.540;2023-12-14T13:51:33;307.90;2304.00
70151;DHT22;57517;43.562;19.540;2023-12-14T13:53:59;307.80;2304.00
70151;DHT22;57517;43.562;19.540;2023-12-14T13:56:25;307.80;2304.00
70151;DHT22;57517;43.562;19.540;2023-12-14T13:58:51;307.90;2304.00
70151;DHT22;57517;43.562;19.540;2023-12-14T14:01:17;307.80;2304.00
70151;DHT22;57517;43.562;19.540;2023-12-14T14:03:44;307.80;2304.00
70151;DHT22;57517;43.562;19.540;2023-12-14T14:06:12;307.80;2304.00
70151;DHT22;57517;43.562;19.540;2023-12-14T14:08:38;307.70;2304.00
70151;DHT22;57517;43.562;19.540;2023-12-14T14:11:04;307.60;2304.00
70151;DHT22;57517;43.562;19.540;2023-12-14T14:13:30;307.70;2304.00
70151;DHT22;57517;43.562;19.540;2023-12-14T14:15:56;307.60;2304.00
70151;DHT22;57517;43.562;19.540;2023-12-14T14:18:22;307.50;2304.00
70151;DHT22;57517;43.562;19.540;2023-12-14T14:20:48;307.50;2304.00
70151;DHT22;57517;43.562;19.540;2023-12-14T14:23:14;307.40;2304.00
70151;DHT22;57517;43.562;19.540;2023-12-14T14:25:40;307.30;2304.00
70151;DHT22;57517;43.562;19.540;2023-12-14T14:28:06;282.50;2278.40
70151;DHT22;57517;43.562;19.540;2023-12-14T14:30:32;282.50;2278.40
70151;DHT22;57517;43.562;19.540;2023-12-14T14:32:57;282.40;2278.40
70151;DHT22;57517;43.562;19.540;2023-12-14T14:35:23;282.50;2278.40
70151;DHT22;57517;43.562;19.540;2023-12-14T14:37:49;282.50;2278.40
70151;DHT22;57517;43.562;19.540;2023-12-14T14:40:16;282.40;2278.40